createdAt,value
2023-05-21T00:01:10.700Z,14.01
2023-05-21T00:03:42.350Z,14.03
2023-05-21T00:06:10.677Z,14.05
2023-05-21T00:08:40.243Z,14.03
2023-05-21T00:11:11.140Z,13.96
2023-05-21T00:13:39.560Z,13.98
2023-05-21T00:16:08.408Z,13.97
2023-05-21T00:18:36.552Z,13.98
2023-05-21T00:21:04.913Z,13.95
2023-05-21T00:23:34.149Z,14.01
2023-05-21T00:26:03.644Z,14.01
2023-05-21T00:28:31.742Z,14.00
2023-05-21T00:30:59.893Z,13.95
2023-05-21T00:33:29.145Z,13.97
2023-05-21T00:35:57.474Z,13.96
2023-05-21T00:38:27.985Z,13.98
2023-05-21T00:40:56.115Z,13.98
2023-05-21T00:43:26.676Z,14.03
2023-05-21T00:45:56.442Z,14.02
2023-05-21T00:48:25.240Z,14.01
2023-05-21T00:50:53.922Z,14.04
2023-05-21T00:53:22.199Z,14.01
2023-05-21T00:55:52.044Z,14.00
2023-05-21T00:58:20.485Z,14.02
2023-05-21T01:00:50.151Z,14.00
2023-05-21T01:03:19.195Z,14.05
2023-05-21T01:05:48.804Z,14.04
2023-05-21T01:08:20.856Z,14.00
2023-05-21T01:10:49.284Z,13.96
2023-05-21T01:13:18.273Z,13.97
2023-05-21T01:15:46.693Z,13.98
2023-05-21T01:18:20.208Z,13.92
2023-05-21T01:20:49.288Z,13.89
2023-05-21T01:23:19.505Z,13.85
2023-05-21T01:25:48.465Z,13.91
2023-05-21T01:28:16.674Z,13.86
2023-05-21T01:30:45.120Z,13.84
2023-05-21T01:33:18.522Z,13.86
2023-05-21T01:35:55.654Z,13.88
2023-05-21T01:38:30.590Z,13.84
2023-05-21T01:41:04.249Z,13.82
2023-05-21T01:43:35.162Z,13.91
2023-05-21T01:46:08.992Z,13.88
2023-05-21T01:48:37.958Z,13.80
2023-05-21T01:51:07.483Z,13.83
2023-05-21T01:53:38.871Z,13.80
2023-05-21T01:56:07.726Z,13.77
2023-05-21T01:58:36.231Z,13.81
2023-05-21T02:01:05.119Z,13.82
2023-05-21T02:03:33.314Z,13.72
2023-05-21T02:06:01.691Z,13.69
2023-05-21T02:08:29.822Z,13.65
2023-05-21T02:10:59.299Z,13.61
2023-05-21T02:13:29.877Z,13.70
2023-05-21T02:15:58.091Z,13.64
2023-05-21T02:18:26.488Z,13.63
2023-05-21T02:20:54.697Z,13.60
2023-05-21T02:23:22.836Z,13.64
2023-05-21T02:25:51.005Z,13.64
2023-05-21T02:28:21.395Z,13.55
2023-05-21T02:30:49.505Z,13.60
2023-05-21T02:33:17.987Z,13.58
2023-05-21T02:35:46.585Z,13.51
2023-05-21T02:38:19.570Z,13.50
2023-05-21T02:40:48.062Z,13.53
2023-05-21T02:43:16.445Z,13.55
2023-05-21T02:45:46.159Z,13.48
2023-05-21T02:48:14.329Z,13.47
2023-05-21T02:50:42.492Z,13.59
2023-05-21T02:53:10.590Z,13.51
2023-05-21T02:55:38.865Z,13.44
2023-05-21T02:58:07.182Z,13.40
2023-05-21T03:00:35.520Z,13.40
2023-05-21T03:03:05.137Z,13.48
2023-05-21T03:05:33.334Z,13.43
2023-05-21T03:08:01.459Z,13.43
2023-05-21T03:10:29.643Z,13.36
2023-05-21T03:12:57.740Z,13.34
2023-05-21T03:15:25.992Z,13.38
2023-05-21T03:17:55.589Z,13.38
2023-05-21T03:20:25.128Z,13.37
2023-05-21T03:22:54.924Z,13.37
2023-05-21T03:25:25.400Z,13.39
2023-05-21T03:27:53.839Z,13.38
2023-05-21T03:30:21.923Z,13.37
2023-05-21T03:32:51.488Z,13.42
2023-05-21T03:35:19.843Z,13.40
2023-05-21T03:37:49.306Z,13.33
2023-05-21T03:40:17.651Z,13.30
2023-05-21T03:42:45.773Z,13.30
2023-05-21T03:45:13.919Z,13.28
2023-05-21T03:47:43.109Z,13.28
2023-05-21T03:50:12.388Z,13.28
2023-05-21T03:52:40.751Z,13.24
2023-05-21T03:55:11.170Z,13.24
2023-05-21T03:57:39.374Z,13.21
2023-05-21T04:00:09.092Z,13.18
2023-05-21T04:02:37.397Z,13.23
2023-05-21T04:05:07.221Z,13.20
2023-05-21T04:07:38.338Z,13.22
2023-05-21T04:10:07.795Z,13.21
2023-05-21T04:12:37.333Z,13.16
2023-05-21T04:15:06.367Z,13.17
2023-05-21T04:17:34.631Z,13.16
2023-05-21T04:20:02.829Z,13.17
2023-05-21T04:22:30.898Z,13.11
2023-05-21T04:24:59.721Z,13.18
2023-05-21T04:27:27.824Z,13.16
2023-05-21T04:29:58.161Z,13.21
2023-05-21T04:32:26.349Z,13.17
2023-05-21T04:34:54.561Z,13.18
2023-05-21T04:37:24.732Z,13.13
2023-05-21T04:39:53.599Z,13.10
2023-05-21T04:42:24.291Z,13.08
2023-05-21T04:44:52.496Z,13.10
2023-05-21T04:47:24.350Z,13.10
2023-05-21T04:49:54.645Z,13.06
2023-05-21T04:52:27.459Z,13.08
2023-05-21T04:54:55.712Z,13.12
2023-05-21T04:57:24.627Z,13.11
2023-05-21T04:59:52.794Z,13.15
2023-05-21T05:02:21.126Z,13.14
2023-05-21T05:04:50.736Z,13.15
2023-05-21T05:07:21.657Z,13.19
2023-05-21T05:09:49.872Z,13.14
2023-05-21T05:12:18.143Z,13.21
2023-05-21T05:14:46.339Z,13.18
2023-05-21T05:17:15.789Z,13.25
2023-05-21T05:19:44.014Z,13.31
2023-05-21T05:22:13.733Z,13.27
2023-05-21T05:24:41.967Z,13.28
2023-05-21T05:27:10.080Z,13.30
2023-05-21T05:29:38.194Z,13.34
2023-05-21T05:32:07.231Z,13.45
2023-05-21T05:34:35.333Z,13.51
2023-05-21T05:37:04.419Z,13.48
2023-05-21T05:39:33.958Z,13.49
2023-05-21T05:42:02.233Z,13.57
2023-05-21T05:44:30.427Z,13.63
2023-05-21T05:46:58.560Z,13.62
2023-05-21T05:49:26.741Z,13.65
2023-05-21T05:51:55.127Z,13.66
2023-05-21T05:54:23.225Z,13.67
2023-05-21T05:56:52.874Z,13.72
2023-05-21T05:59:23.538Z,13.77
2023-05-21T06:01:51.636Z,13.83
2023-05-21T06:04:19.800Z,13.88
2023-05-21T06:06:48.344Z,13.87
2023-05-21T06:09:16.627Z,14.01
2023-05-21T06:11:44.825Z,14.11
2023-05-21T06:14:14.269Z,14.11
2023-05-21T06:16:42.445Z,14.16
2023-05-21T06:19:10.678Z,14.19
2023-05-21T06:21:38.808Z,14.29
2023-05-21T06:24:07.771Z,14.41
2023-05-21T06:26:35.926Z,14.54
2023-05-21T06:29:04.792Z,14.62
2023-05-21T06:31:34.366Z,14.75
2023-05-21T06:34:02.580Z,14.87
2023-05-21T06:36:32.540Z,14.97
2023-05-21T06:39:01.182Z,15.08
2023-05-21T06:41:29.517Z,15.20
2023-05-21T06:43:59.817Z,15.27
2023-05-21T06:46:28.091Z,15.43
2023-05-21T06:48:57.961Z,15.55
2023-05-21T06:51:26.137Z,15.69
2023-05-21T06:53:54.367Z,15.88
2023-05-21T06:56:22.837Z,15.90
2023-05-21T06:58:51.225Z,16.01
2023-05-21T07:01:19.448Z,16.12
2023-05-21T07:03:50.120Z,16.29
2023-05-21T07:06:19.620Z,16.46
2023-05-21T07:08:49.596Z,16.55
2023-05-21T07:11:17.891Z,16.83
2023-05-21T07:13:45.999Z,16.98
2023-05-21T07:16:14.140Z,16.97
2023-05-21T07:18:42.336Z,17.04
2023-05-21T07:21:10.653Z,17.16
2023-05-21T07:23:40.428Z,17.29
2023-05-21T07:26:08.641Z,17.30
2023-05-21T07:28:36.788Z,17.25
2023-05-21T07:31:08.449Z,17.39
2023-05-21T07:33:36.683Z,17.32
2023-05-21T07:36:05.174Z,17.39
2023-05-21T07:38:33.937Z,17.57
2023-05-21T07:41:06.469Z,17.77
2023-05-21T07:43:34.637Z,17.83
2023-05-21T07:46:02.824Z,17.77
2023-05-21T07:48:31.656Z,17.88
2023-05-21T07:51:01.604Z,18.06
2023-05-21T07:53:32.372Z,18.19
2023-05-21T07:56:02.754Z,18.39
2023-05-21T07:58:32.667Z,18.52
2023-05-21T08:01:00.800Z,18.76
2023-05-21T08:03:32.109Z,18.77
2023-05-21T08:06:00.432Z,18.86
2023-05-21T08:08:28.586Z,19.14
2023-05-21T08:10:57.169Z,19.24
2023-05-21T08:13:25.353Z,19.38
2023-05-21T08:15:55.378Z,19.39
2023-05-21T08:18:24.003Z,19.61
2023-05-21T08:20:52.221Z,19.73
2023-05-21T08:23:20.320Z,19.92
2023-05-21T08:25:48.556Z,19.93
2023-05-21T08:28:16.757Z,20.22
2023-05-21T08:30:44.868Z,20.26
2023-05-21T08:33:14.987Z,20.30
2023-05-21T08:35:45.845Z,20.18
2023-05-21T08:38:14.083Z,20.03
2023-05-21T08:40:42.335Z,20.14
2023-05-21T08:43:13.882Z,20.23
2023-05-21T08:45:45.761Z,20.51
2023-05-21T08:48:17.660Z,20.57
2023-05-21T08:50:47.195Z,20.75
2023-05-21T08:53:27.513Z,20.88
2023-05-21T08:55:57.645Z,21.19
2023-05-21T08:58:27.035Z,21.18
2023-05-21T09:00:56.314Z,21.36
2023-05-21T09:03:26.152Z,21.44
2023-05-21T09:05:55.167Z,21.45
2023-05-21T09:08:30.873Z,21.56
2023-05-21T09:10:59.118Z,21.60
2023-05-21T09:13:29.904Z,21.52
2023-05-21T09:15:58.308Z,21.66
2023-05-21T09:18:28.689Z,21.86
2023-05-21T09:20:57.636Z,22.00
2023-05-21T09:23:25.900Z,21.92
2023-05-21T09:25:54.000Z,21.89
2023-05-21T09:28:22.174Z,21.95
2023-05-21T09:30:54.155Z,22.11
2023-05-21T09:33:30.759Z,22.36
2023-05-21T09:35:58.960Z,22.61
2023-05-21T09:38:27.310Z,22.64
2023-05-21T09:40:57.630Z,22.61
2023-05-21T09:43:26.679Z,22.69
2023-05-21T09:45:56.891Z,22.62
2023-05-21T09:48:37.594Z,22.80
2023-05-21T09:51:13.855Z,23.01
2023-05-21T09:53:46.343Z,23.19
2023-05-21T09:56:14.630Z,23.17
2023-05-21T09:58:45.548Z,23.01
2023-05-21T10:01:14.334Z,23.29
2023-05-21T10:03:48.146Z,23.32
2023-05-21T10:06:20.975Z,23.40
2023-05-21T10:08:53.176Z,23.23
2023-05-21T10:11:25.125Z,23.55
2023-05-21T10:13:58.812Z,23.62
2023-05-21T10:16:27.048Z,23.57
2023-05-21T10:19:01.319Z,23.64
2023-05-21T10:21:29.712Z,23.58
2023-05-21T10:23:59.180Z,24.01
2023-05-21T10:26:27.884Z,24.08
2023-05-21T10:28:59.458Z,24.22
2023-05-21T10:31:27.960Z,24.38
2023-05-21T10:33:56.742Z,24.46
2023-05-21T10:36:27.562Z,24.75
2023-05-21T10:38:56.331Z,25.02
2023-05-21T10:41:27.200Z,24.89
2023-05-21T10:44:12.045Z,24.77
2023-05-21T10:47:07.336Z,25.08
2023-05-21T10:50:05.075Z,24.98
2023-05-21T10:52:51.823Z,24.90
2023-05-21T10:55:33.645Z,24.94
2023-05-21T10:58:32.647Z,25.00
2023-05-21T11:01:02.675Z,25.09
2023-05-21T11:03:35.011Z,25.29
2023-05-21T11:06:06.508Z,25.71
2023-05-21T11:08:37.558Z,25.57
2023-05-21T11:11:06.012Z,25.50
2023-05-21T11:13:48.861Z,25.80
2023-05-21T11:16:17.821Z,26.24
2023-05-21T11:18:59.246Z,26.29
2023-05-21T11:21:31.518Z,26.44
2023-05-21T11:24:11.212Z,26.50
2023-05-21T11:27:08.796Z,26.80
2023-05-21T11:29:45.322Z,27.13
2023-05-21T11:32:17.535Z,27.20
2023-05-21T11:34:49.558Z,27.40
2023-05-21T11:37:34.785Z,27.69
2023-05-21T11:40:23.948Z,27.96
2023-05-21T11:42:53.787Z,28.06
2023-05-21T11:45:23.114Z,27.96
2023-05-21T11:47:52.789Z,27.72
2023-05-21T11:50:21.210Z,27.73
2023-05-21T11:52:50.360Z,27.38
2023-05-21T11:55:26.239Z,27.50
2023-05-21T11:57:55.697Z,27.88
2023-05-21T12:00:26.109Z,28.31
2023-05-21T12:02:55.746Z,28.44
2023-05-21T12:05:24.572Z,28.50
2023-05-21T12:07:54.671Z,28.48
2023-05-21T12:10:24.855Z,28.72
2023-05-21T12:12:56.808Z,28.56
2023-05-21T12:15:26.001Z,28.50
2023-05-21T12:17:54.578Z,28.47
2023-05-21T12:20:23.865Z,28.62
2023-05-21T12:22:52.008Z,28.66
2023-05-21T12:25:24.698Z,28.78
2023-05-21T12:27:58.946Z,28.81
2023-05-21T12:30:27.694Z,28.98
2023-05-21T12:32:59.276Z,29.07
2023-05-21T12:35:27.730Z,29.02
2023-05-21T12:37:58.881Z,28.93
2023-05-21T12:40:38.998Z,28.95
2023-05-21T12:43:08.071Z,28.91
2023-05-21T12:45:39.372Z,28.83
2023-05-21T12:48:08.062Z,28.68
2023-05-21T12:50:40.442Z,29.10
2023-05-21T12:53:10.673Z,29.09
2023-05-21T12:55:40.613Z,28.64
2023-05-21T12:58:09.458Z,28.97
2023-05-21T13:00:38.385Z,29.27
2023-05-21T13:03:07.494Z,29.42
2023-05-21T13:05:36.211Z,29.20
2023-05-21T13:08:06.818Z,28.90
2023-05-21T13:10:35.373Z,28.93
2023-05-21T13:13:05.098Z,29.27
2023-05-21T13:15:33.291Z,29.41
2023-05-21T13:18:01.873Z,29.49
2023-05-21T13:20:30.250Z,29.45
2023-05-21T13:23:03.429Z,29.79
2023-05-21T13:25:33.595Z,29.83
2023-05-21T13:28:06.040Z,29.95
2023-05-21T13:30:34.381Z,29.94
2023-05-21T13:33:02.584Z,29.84
2023-05-21T13:35:32.325Z,29.70
2023-05-21T13:38:00.463Z,29.59
2023-05-21T13:40:28.619Z,29.58
2023-05-21T13:42:56.738Z,29.58
2023-05-21T13:45:29.372Z,29.50
2023-05-21T13:47:57.859Z,29.03
2023-05-21T13:50:26.514Z,29.08
2023-05-21T13:52:54.728Z,29.27
2023-05-21T13:55:22.838Z,29.50
2023-05-21T13:57:51.076Z,29.73
2023-05-21T14:00:19.190Z,29.77
2023-05-21T14:02:48.915Z,29.65
2023-05-21T14:05:17.272Z,29.78
2023-05-21T14:07:47.535Z,29.90
2023-05-21T14:10:15.916Z,29.41
2023-05-21T14:12:46.081Z,29.63
2023-05-21T14:15:14.320Z,29.64
2023-05-21T14:17:42.643Z,29.77
2023-05-21T14:20:13.131Z,29.77
2023-05-21T14:22:44.323Z,29.59
2023-05-21T14:25:12.591Z,29.28
2023-05-21T14:27:43.123Z,29.36
2023-05-21T14:30:12.050Z,29.55
2023-05-21T14:32:43.022Z,29.57
2023-05-21T14:35:12.682Z,29.41
2023-05-21T14:37:41.034Z,29.48
2023-05-21T14:40:10.381Z,29.48
2023-05-21T14:42:38.525Z,29.22
2023-05-21T14:45:18.615Z,28.87
2023-05-21T14:47:48.878Z,28.93
2023-05-21T14:50:21.823Z,28.78
2023-05-21T14:52:50.065Z,28.57
2023-05-21T14:55:18.716Z,28.60
2023-05-21T14:57:46.840Z,28.98
2023-05-21T15:00:15.685Z,28.92
2023-05-21T15:02:44.028Z,29.26
2023-05-21T15:05:12.279Z,29.08
2023-05-21T15:07:44.775Z,29.24
2023-05-21T15:10:13.278Z,29.20
2023-05-21T15:12:41.988Z,29.05
2023-05-21T15:15:11.080Z,29.13
2023-05-21T15:17:39.237Z,28.66
2023-05-21T15:20:10.793Z,28.52
2023-05-21T15:22:38.978Z,28.43
2023-05-21T15:25:09.540Z,28.57
2023-05-21T15:27:37.826Z,28.55
2023-05-21T15:30:07.297Z,28.63
2023-05-21T15:32:35.576Z,28.70
2023-05-21T15:35:03.915Z,28.80
2023-05-21T15:37:33.420Z,28.77
2023-05-21T15:40:02.219Z,28.53
2023-05-21T15:42:31.947Z,28.44
2023-05-21T15:45:00.429Z,28.43
2023-05-21T15:47:31.156Z,28.26
2023-05-21T15:50:00.477Z,28.01
2023-05-21T15:52:28.800Z,28.01
2023-05-21T15:54:57.061Z,27.96
2023-05-21T15:57:25.254Z,27.79
2023-05-21T15:59:55.000Z,27.94
2023-05-21T16:02:23.376Z,27.74
2023-05-21T16:04:52.262Z,27.95
2023-05-21T16:07:21.039Z,27.85
2023-05-21T16:09:49.185Z,27.99
2023-05-21T16:12:17.650Z,27.66
2023-05-21T16:14:45.927Z,27.60
2023-05-21T16:17:15.499Z,27.69
2023-05-21T16:19:43.622Z,27.89
2023-05-21T16:22:11.882Z,27.69
2023-05-21T16:24:42.294Z,27.84
2023-05-21T16:27:13.249Z,27.77
2023-05-21T16:29:41.313Z,27.62
2023-05-21T16:32:09.830Z,27.58
2023-05-21T16:34:39.654Z,27.22
2023-05-21T16:37:08.716Z,27.29
2023-05-21T16:39:36.905Z,27.23
2023-05-21T16:42:05.526Z,27.33
2023-05-21T16:44:33.721Z,27.28
2023-05-21T16:47:04.363Z,27.18
2023-05-21T16:49:32.513Z,27.53
2023-05-21T16:52:03.325Z,27.24
2023-05-21T16:54:31.524Z,27.18
2023-05-21T16:56:59.663Z,27.12
2023-05-21T16:59:31.177Z,27.31
2023-05-21T17:01:59.597Z,27.33
2023-05-21T17:04:27.781Z,27.25
2023-05-21T17:06:55.984Z,27.12
2023-05-21T17:09:25.540Z,26.98
2023-05-21T17:11:53.711Z,27.18
2023-05-21T17:14:33.022Z,26.97
2023-05-21T17:17:02.439Z,26.89
2023-05-21T17:19:30.645Z,26.76
2023-05-21T17:21:59.119Z,26.73
2023-05-21T17:24:28.911Z,26.84
2023-05-21T17:26:57.138Z,26.83
2023-05-21T17:29:25.490Z,26.65
2023-05-21T17:31:53.631Z,26.49
2023-05-21T17:34:24.618Z,26.57
2023-05-21T17:36:52.780Z,26.49
2023-05-21T17:39:23.912Z,26.57
2023-05-21T17:41:53.680Z,26.31
2023-05-21T17:44:22.008Z,26.23
2023-05-21T17:46:51.371Z,26.21
2023-05-21T17:49:19.882Z,25.81
2023-05-21T17:51:48.123Z,25.91
2023-05-21T17:54:16.626Z,25.78
2023-05-21T17:56:46.382Z,25.63
2023-05-21T17:59:16.681Z,25.47
2023-05-21T18:01:44.873Z,25.46
2023-05-21T18:04:13.287Z,25.58
2023-05-21T18:06:41.580Z,25.48
2023-05-21T18:09:10.635Z,25.52
2023-05-21T18:11:38.810Z,25.42
2023-05-21T18:14:06.940Z,25.24
2023-05-21T18:16:36.547Z,25.27
2023-05-21T18:19:06.725Z,25.09
2023-05-21T18:21:35.084Z,24.97
2023-05-21T18:24:03.280Z,24.77
2023-05-21T18:26:31.393Z,24.63
2023-05-21T18:28:59.979Z,24.54
2023-05-21T18:31:28.313Z,24.56
2023-05-21T18:33:57.827Z,24.50
2023-05-21T18:36:26.696Z,24.39
2023-05-21T18:38:54.871Z,24.27
2023-05-21T18:41:23.271Z,24.20
2023-05-21T18:43:51.420Z,24.12
2023-05-21T18:46:19.915Z,24.21
2023-05-21T18:48:48.688Z,24.31
2023-05-21T18:51:18.295Z,24.09
2023-05-21T18:53:46.461Z,24.06
2023-05-21T18:56:15.119Z,24.00
2023-05-21T18:58:43.372Z,23.93
2023-05-21T19:01:11.836Z,23.65
2023-05-21T19:03:40.107Z,23.68
2023-05-21T19:06:09.382Z,23.58
2023-05-21T19:08:39.091Z,23.49
2023-05-21T19:11:07.534Z,23.55
2023-05-21T19:13:38.656Z,23.48
2023-05-21T19:16:10.998Z,23.39
2023-05-21T19:18:42.041Z,23.30
2023-05-21T19:21:11.783Z,23.22
2023-05-21T19:23:52.018Z,23.23
2023-05-21T19:26:22.422Z,23.15
2023-05-21T19:28:53.419Z,22.98
2023-05-21T19:31:22.523Z,22.95
2023-05-21T19:33:50.852Z,22.85
2023-05-21T19:36:19.611Z,22.73
2023-05-21T19:38:49.675Z,22.56
2023-05-21T19:41:18.159Z,22.55
2023-05-21T19:43:49.332Z,22.52
2023-05-21T19:46:20.126Z,22.51
2023-05-21T19:48:49.043Z,22.47
2023-05-21T19:51:17.542Z,22.37
2023-05-21T19:53:45.698Z,22.31
2023-05-21T19:56:15.371Z,22.23
2023-05-21T19:58:47.200Z,22.15
2023-05-21T20:01:15.938Z,22.07
2023-05-21T20:03:45.480Z,22.05
2023-05-21T20:06:15.541Z,21.95
2023-05-21T20:08:44.243Z,21.89
2023-05-21T20:11:12.473Z,21.83
2023-05-21T20:13:42.647Z,21.75
2023-05-21T20:16:12.854Z,21.59
2023-05-21T20:18:41.714Z,21.60
2023-05-21T20:21:10.602Z,21.51
2023-05-21T20:23:38.783Z,21.33
2023-05-21T20:26:07.011Z,21.25
2023-05-21T20:28:35.615Z,21.12
2023-05-21T20:31:05.914Z,21.14
2023-05-21T20:33:38.730Z,20.99
2023-05-21T20:36:08.812Z,20.94
2023-05-21T20:38:42.333Z,20.95
2023-05-21T20:41:11.291Z,20.90
2023-05-21T20:43:39.596Z,20.82
2023-05-21T20:46:09.247Z,20.68
2023-05-21T20:48:37.887Z,20.76
2023-05-21T20:51:06.459Z,20.60
2023-05-21T20:53:34.675Z,20.46
2023-05-21T20:56:02.886Z,20.36
2023-05-21T20:58:34.081Z,20.36
2023-05-21T21:01:02.422Z,20.27
2023-05-21T21:03:35.226Z,20.23
2023-05-21T21:06:04.482Z,20.08
2023-05-21T21:08:34.781Z,19.99
2023-05-21T21:11:03.115Z,19.97
2023-05-21T21:13:31.257Z,19.95
2023-05-21T21:15:59.501Z,19.90
2023-05-21T21:18:27.708Z,19.86
2023-05-21T21:20:57.648Z,19.81
2023-05-21T21:23:26.180Z,19.69
2023-05-21T21:25:54.696Z,19.68
2023-05-21T21:28:22.908Z,19.66
2023-05-21T21:30:51.538Z,19.59
2023-05-21T21:33:24.486Z,19.49
2023-05-21T21:35:52.731Z,19.35
2023-05-21T21:38:22.379Z,19.35
2023-05-21T21:40:50.845Z,19.33
2023-05-21T21:43:18.915Z,19.22
2023-05-21T21:45:47.194Z,19.24
2023-05-21T21:48:16.581Z,19.09
2023-05-21T21:50:44.953Z,19.06
2023-05-21T21:53:15.378Z,19.16
2023-05-21T21:55:44.944Z,19.00
2023-05-21T21:58:13.559Z,18.99
2023-05-21T22:00:41.859Z,19.07
2023-05-21T22:03:11.646Z,19.02
2023-05-21T22:05:42.649Z,19.02
2023-05-21T22:08:11.076Z,18.96
2023-05-21T22:10:39.672Z,18.95
2023-05-21T22:13:09.992Z,18.90
2023-05-21T22:15:38.488Z,18.89
2023-05-21T22:18:09.551Z,18.68
2023-05-21T22:20:38.355Z,18.76
2023-05-21T22:23:07.374Z,18.73
2023-05-21T22:25:36.138Z,18.79
2023-05-21T22:28:04.317Z,18.86
2023-05-21T22:30:33.861Z,18.83
2023-05-21T22:33:04.762Z,18.88
2023-05-21T22:35:33.206Z,18.88
2023-05-21T22:38:02.415Z,18.88
2023-05-21T22:40:30.564Z,18.87
2023-05-21T22:42:58.745Z,18.86
2023-05-21T22:45:26.830Z,18.83
2023-05-21T22:47:56.760Z,18.85
2023-05-21T22:50:29.139Z,18.83
2023-05-21T22:52:57.413Z,18.87
2023-05-21T22:55:25.588Z,18.82
2023-05-21T22:57:53.804Z,18.90
2023-05-21T23:00:26.174Z,18.87
2023-05-21T23:02:54.933Z,18.84
2023-05-21T23:05:24.757Z,18.86
2023-05-21T23:07:53.101Z,18.85
2023-05-21T23:10:21.174Z,18.84
2023-05-21T23:12:49.206Z,18.83
2023-05-21T23:15:17.556Z,18.78
2023-05-21T23:17:45.907Z,18.79
2023-05-21T23:20:15.508Z,18.78
2023-05-21T23:22:44.967Z,18.77
2023-05-21T23:25:13.037Z,18.73
2023-05-21T23:27:41.079Z,18.75
2023-05-21T23:30:10.770Z,18.73
2023-05-21T23:32:39.049Z,18.66
2023-05-21T23:35:08.262Z,18.55
2023-05-21T23:37:38.605Z,18.45
2023-05-21T23:40:09.915Z,18.44
2023-05-21T23:42:38.169Z,18.39
2023-05-21T23:45:07.034Z,18.30
2023-05-21T23:47:35.175Z,18.27
2023-05-21T23:50:03.289Z,18.24
2023-05-21T23:52:31.473Z,18.20
2023-05-21T23:54:59.633Z,18.01
2023-05-21T23:57:31.962Z,18.00
